createdAt,value
2023-05-17T00:02:44.155Z,9.20
2023-05-17T00:07:52.819Z,9.00
2023-05-17T00:12:59.706Z,9.10
2023-05-17T00:18:06.997Z,9.20
2023-05-17T00:23:14.172Z,9.00
2023-05-17T00:28:21.866Z,9.00
2023-05-17T00:33:28.882Z,9.00
2023-05-17T00:38:36.234Z,8.90
2023-05-17T00:43:42.565Z,8.90
2023-05-17T00:48:50.292Z,9.10
2023-05-17T00:53:57.338Z,8.80
2023-05-17T00:59:07.057Z,8.70
2023-05-17T01:04:14.666Z,8.70
2023-05-17T01:09:21.657Z,8.70
2023-05-17T01:14:53.030Z,8.70
2023-05-17T01:20:16.190Z,8.60
2023-05-17T01:25:54.516Z,8.60
2023-05-17T01:31:05.938Z,8.50
2023-05-17T01:36:13.628Z,8.50
2023-05-17T01:41:39.115Z,8.50
2023-05-17T01:46:49.323Z,8.50
2023-05-17T01:52:24.773Z,8.40
2023-05-17T01:57:37.003Z,8.50
2023-05-17T02:02:45.868Z,8.50
2023-05-17T02:07:53.435Z,8.40
2023-05-17T02:13:01.512Z,8.30
2023-05-17T02:18:08.385Z,8.20
2023-05-17T02:23:16.384Z,8.00
2023-05-17T02:28:24.217Z,8.00
2023-05-17T02:33:31.615Z,8.00
2023-05-17T02:38:39.659Z,7.90
2023-05-17T02:43:47.416Z,7.90
2023-05-17T02:48:54.625Z,7.90
2023-05-17T02:54:01.696Z,7.70
2023-05-17T02:59:08.883Z,7.70
2023-05-17T03:04:16.517Z,7.60
2023-05-17T03:09:23.475Z,7.50
2023-05-17T03:14:30.295Z,7.40
2023-05-17T03:19:39.340Z,7.40
2023-05-17T03:24:46.661Z,7.20
2023-05-17T03:29:54.471Z,7.20
2023-05-17T03:35:01.889Z,7.10
2023-05-17T03:40:09.286Z,7.00
2023-05-17T03:45:17.144Z,7.00
2023-05-17T03:50:24.350Z,7.10
2023-05-17T03:55:31.550Z,7.00
2023-05-17T04:00:38.485Z,7.10
2023-05-17T04:05:46.870Z,7.10
2023-05-17T04:10:54.298Z,7.10
2023-05-17T04:16:01.357Z,7.00
2023-05-17T04:21:10.484Z,7.10
2023-05-17T04:26:17.495Z,7.20
2023-05-17T04:31:26.760Z,7.10
2023-05-17T04:36:35.470Z,7.20
2023-05-17T04:41:42.697Z,7.30
2023-05-17T04:46:49.614Z,7.40
2023-05-17T04:51:56.977Z,7.40
2023-05-17T04:57:04.509Z,7.40
2023-05-17T05:02:11.878Z,7.50
2023-05-17T05:07:20.631Z,7.50
2023-05-17T05:12:28.729Z,7.70
2023-05-17T05:17:36.766Z,7.70
2023-05-17T05:22:44.108Z,7.70
2023-05-17T05:27:51.323Z,7.90
2023-05-17T05:32:58.772Z,7.90
2023-05-17T05:38:06.707Z,7.80
2023-05-17T05:43:13.792Z,7.80
2023-05-17T05:48:21.578Z,7.80
2023-05-17T05:53:30.026Z,7.90
2023-05-17T05:58:36.994Z,7.90
2023-05-17T06:03:45.790Z,7.90
2023-05-17T06:08:53.056Z,7.90
2023-05-17T06:14:00.065Z,8.10
2023-05-17T06:19:08.586Z,8.10
2023-05-17T06:24:17.136Z,8.00
2023-05-17T06:29:24.519Z,8.00
2023-05-17T06:34:31.649Z,7.90
2023-05-17T06:39:42.681Z,8.10
2023-05-17T06:44:53.430Z,8.10
2023-05-17T06:50:00.365Z,8.00
2023-05-17T06:55:07.958Z,8.10
2023-05-17T07:00:16.744Z,8.10
2023-05-17T07:05:26.162Z,8.20
2023-05-17T07:10:33.616Z,8.40
2023-05-17T07:15:42.371Z,8.80
2023-05-17T07:20:49.832Z,8.50
2023-05-17T07:25:56.958Z,8.50
2023-05-17T07:31:03.819Z,8.80
2023-05-17T07:36:12.326Z,8.90
2023-05-17T07:41:21.822Z,9.10
2023-05-17T07:46:28.757Z,9.10
2023-05-17T07:51:37.456Z,9.00
2023-05-17T07:56:44.269Z,9.20
2023-05-17T08:01:52.083Z,9.10
2023-05-17T08:07:00.477Z,9.10
2023-05-17T08:12:07.911Z,9.40
2023-05-17T08:17:14.513Z,9.50
2023-05-17T08:22:21.885Z,9.60
2023-05-17T08:27:30.967Z,9.80
2023-05-17T08:32:40.551Z,9.70
2023-05-17T08:37:47.634Z,9.90
2023-05-17T08:42:55.295Z,9.90
2023-05-17T08:48:04.180Z,9.80
2023-05-17T08:53:12.907Z,10.00
2023-05-17T08:58:25.039Z,10.00
2023-05-17T09:03:34.230Z,10.10
2023-05-17T09:08:42.753Z,10.40
2023-05-17T09:13:49.817Z,10.10
2023-05-17T09:18:59.434Z,10.10
2023-05-17T09:24:08.384Z,10.50
2023-05-17T09:29:17.766Z,10.60
2023-05-17T09:34:27.092Z,10.60
2023-05-17T09:39:34.877Z,10.90
2023-05-17T09:44:55.117Z,10.60
2023-05-17T09:50:07.816Z,10.30
2023-05-17T09:55:16.128Z,10.50
2023-05-17T10:00:24.408Z,10.60
2023-05-17T10:05:32.612Z,11.00
2023-05-17T10:10:42.409Z,11.00
2023-05-17T10:15:51.052Z,11.00
2023-05-17T10:20:58.860Z,10.90
2023-05-17T10:26:06.314Z,11.20
2023-05-17T10:31:14.604Z,11.00
2023-05-17T10:36:24.587Z,11.30
2023-05-17T10:41:37.249Z,11.30
2023-05-17T10:46:59.691Z,11.20
2023-05-17T10:52:23.976Z,11.30
2023-05-17T10:57:50.790Z,11.60
2023-05-17T11:02:49.290Z,11.40
2023-05-17T11:08:17.728Z,11.00
2023-05-17T11:13:31.144Z,11.30
2023-05-17T11:18:50.792Z,11.50
2023-05-17T11:24:02.418Z,12.00
2023-05-17T11:29:11.671Z,11.90
2023-05-17T11:34:20.915Z,11.90
2023-05-17T11:39:27.713Z,12.20
2023-05-17T11:44:37.884Z,12.40
2023-05-17T11:49:45.377Z,12.20
2023-05-17T11:54:51.743Z,12.20
2023-05-17T12:00:06.216Z,11.80
2023-05-17T12:05:13.500Z,11.70
2023-05-17T12:10:22.127Z,11.70
2023-05-17T12:15:32.184Z,12.30
2023-05-17T12:20:40.137Z,12.70
2023-05-17T12:25:47.388Z,12.40
2023-05-17T12:30:59.027Z,12.10
2023-05-17T12:36:06.518Z,12.30
2023-05-17T12:41:17.104Z,12.30
2023-05-17T12:46:26.357Z,12.20
2023-05-17T12:51:45.421Z,11.80
2023-05-17T12:56:54.303Z,11.90
2023-05-17T13:02:02.337Z,12.20
2023-05-17T13:07:09.463Z,12.20
2023-05-17T13:12:23.390Z,12.30
2023-05-17T13:17:40.746Z,12.30
2023-05-17T13:22:52.001Z,12.10
2023-05-17T13:27:59.617Z,12.30
2023-05-17T13:33:07.232Z,12.70
2023-05-17T13:38:14.132Z,12.60
2023-05-17T13:43:21.587Z,12.60
2023-05-17T13:48:29.373Z,12.60
2023-05-17T13:53:36.820Z,12.60
2023-05-17T13:58:44.239Z,12.80
2023-05-17T14:03:51.562Z,12.40
2023-05-17T14:09:01.019Z,12.60
2023-05-17T14:14:08.629Z,12.60
2023-05-17T14:19:16.762Z,12.70
2023-05-17T14:24:23.676Z,12.80
2023-05-17T14:29:33.020Z,12.70
2023-05-17T14:34:40.030Z,12.60
2023-05-17T14:39:58.401Z,12.60
2023-05-17T14:44:55.663Z,12.50
2023-05-17T14:50:03.436Z,12.50
2023-05-17T14:55:10.927Z,12.20
2023-05-17T15:00:18.924Z,12.20
2023-05-17T15:05:25.937Z,12.30
2023-05-17T15:10:32.697Z,12.40
2023-05-17T15:15:40.725Z,12.50
2023-05-17T15:20:48.886Z,12.50
2023-05-17T15:25:56.029Z,12.40
2023-05-17T15:31:12.734Z,12.40
2023-05-17T15:36:19.848Z,12.30
2023-05-17T15:41:30.001Z,12.30
2023-05-17T15:46:36.783Z,12.30
2023-05-17T15:51:42.534Z,12.20
2023-05-17T15:56:49.281Z,12.20
2023-05-17T16:01:56.014Z,12.30
2023-05-17T16:07:02.469Z,12.20
2023-05-17T16:12:11.043Z,12.10
2023-05-17T16:17:18.259Z,12.10
2023-05-17T16:22:26.057Z,12.00
2023-05-17T16:27:33.220Z,12.10
2023-05-17T16:32:40.957Z,12.00
2023-05-17T16:37:48.836Z,12.10
2023-05-17T16:42:56.639Z,12.10
2023-05-17T16:48:04.033Z,12.10
2023-05-17T16:53:13.400Z,12.00
2023-05-17T16:58:21.192Z,11.90
2023-05-17T17:03:29.756Z,11.90
2023-05-17T17:08:36.981Z,11.80
2023-05-17T17:13:45.091Z,11.80
2023-05-17T17:18:53.223Z,11.90
2023-05-17T17:24:00.360Z,11.90
2023-05-17T17:29:09.141Z,11.70
2023-05-17T17:34:16.498Z,11.40
2023-05-17T17:39:24.052Z,11.50
2023-05-17T17:44:31.654Z,11.50
2023-05-17T17:49:38.455Z,11.60
2023-05-17T17:54:46.246Z,11.40
2023-05-17T17:59:53.757Z,11.40
2023-05-17T18:05:01.225Z,11.30
2023-05-17T18:10:08.828Z,11.30
2023-05-17T18:15:16.036Z,11.30
2023-05-17T18:20:23.651Z,11.10
2023-05-17T18:25:31.148Z,11.10
2023-05-17T18:30:39.727Z,11.10
2023-05-17T18:35:47.268Z,11.00
2023-05-17T18:40:55.311Z,11.00
2023-05-17T18:46:02.581Z,10.60
2023-05-17T18:51:11.612Z,10.30
2023-05-17T18:56:21.636Z,10.10
2023-05-17T19:01:29.594Z,9.80
2023-05-17T19:06:40.681Z,9.80
2023-05-17T19:11:49.220Z,9.60
2023-05-17T19:16:57.688Z,9.50
2023-05-17T19:22:05.787Z,9.60
2023-05-17T19:27:15.075Z,9.50
2023-05-17T19:32:23.474Z,9.10
2023-05-17T19:37:31.232Z,8.90
2023-05-17T19:42:39.561Z,9.00
2023-05-17T19:47:47.482Z,9.20
2023-05-17T19:52:55.761Z,9.00
2023-05-17T19:58:03.191Z,9.00
2023-05-17T20:03:10.603Z,9.10
2023-05-17T20:08:17.468Z,8.90
2023-05-17T20:13:26.164Z,8.80
2023-05-17T20:18:33.873Z,8.70
2023-05-17T20:23:40.916Z,8.70
2023-05-17T20:28:47.630Z,8.80
2023-05-17T20:33:55.380Z,8.80
2023-05-17T20:39:02.481Z,8.60
2023-05-17T20:44:09.460Z,8.50
2023-05-17T20:49:17.340Z,8.40
2023-05-17T20:54:26.702Z,8.20
2023-05-17T20:59:34.627Z,8.40
2023-05-17T21:04:42.172Z,8.30
2023-05-17T21:09:50.093Z,8.20
2023-05-17T21:15:15.182Z,8.20
2023-05-17T21:20:08.777Z,7.90
2023-05-17T21:25:15.285Z,8.10
2023-05-17T21:30:22.885Z,7.70
2023-05-17T21:35:30.081Z,8.00
2023-05-17T21:40:39.102Z,8.10
2023-05-17T21:45:46.829Z,8.00
2023-05-17T21:50:53.832Z,8.10
2023-05-17T21:56:09.520Z,7.80
2023-05-17T22:01:17.396Z,7.70
2023-05-17T22:06:23.988Z,7.70
2023-05-17T22:11:33.051Z,7.80
2023-05-17T22:16:41.764Z,7.50
2023-05-17T22:21:48.926Z,7.60
2023-05-17T22:26:55.517Z,7.70
2023-05-17T22:32:02.411Z,7.50
2023-05-17T22:37:12.208Z,7.60
2023-05-17T22:42:19.338Z,7.60
2023-05-17T22:47:26.914Z,7.60
2023-05-17T22:52:34.007Z,7.50
2023-05-17T22:57:40.041Z,7.60
2023-05-17T23:02:47.094Z,7.30
2023-05-17T23:07:54.386Z,7.60
2023-05-17T23:13:01.314Z,7.40
2023-05-17T23:18:08.656Z,7.60
2023-05-17T23:23:16.320Z,7.50
2023-05-17T23:28:25.001Z,7.40
2023-05-17T23:33:34.159Z,7.40
2023-05-17T23:38:41.486Z,7.40
2023-05-17T23:43:48.535Z,7.60
2023-05-17T23:48:57.161Z,7.40
2023-05-17T23:54:03.812Z,7.40
2023-05-17T23:59:12.424Z,7.30
